Time;durP1;ratioP1;P1;durP2;ratioP2;P2;SDS_P1;SDS_P2;PMS_P1;PMS_P2;Temp;Humidity;BMP_temperature;BMP_pressure;BME280_temperature;BME280_humidity;BME280_pressure;Samples;Min_cycle;Max_cycle;Signal;HPM_P1;HPM_P2
2022/05/31 00:00:38;;;;;;;5.50;2.50;;;;;;;9.73;82.79;100821.09;5062338;28;20477;-58
2022/05/31 00:03:11;;;;;;;5.85;1.90;;;;;;;9.74;82.79;100811.44;5044681;28;20067;-55
2022/05/31 00:05:38;;;;;;;6.50;3.40;;;;;;;9.76;83.08;100814.81;5072880;28;20065;-55
2022/05/31 00:08:06;;;;;;;6.13;2.53;;;;;;;9.77;83.26;100817.38;5068844;28;20144;-57
2022/05/31 00:10:33;;;;;;;7.72;2.15;;;;;;;9.77;83.41;100812.13;5062433;28;20512;-56
2022/05/31 00:13:02;;;;;;;7.63;2.30;;;;;;;9.81;83.34;100815.41;5055907;28;20052;-55
2022/05/31 00:15:29;;;;;;;3.72;2.20;;;;;;;9.83;83.40;100818.84;5051557;28;20144;-56
2022/05/31 00:17:56;;;;;;;5.90;2.53;;;;;;;9.84;84.17;100812.63;5048494;28;20063;-58
2022/05/31 00:20:24;;;;;;;6.13;2.60;;;;;;;9.84;84.03;100820.53;5058243;28;20051;-54
2022/05/31 00:22:51;;;;;;;5.22;2.20;;;;;;;9.87;84.26;100817.75;5058504;28;20488;-57
2022/05/31 00:25:19;;;;;;;4.88;2.40;;;;;;;9.88;84.15;100815.03;5067908;28;20052;-54
2022/05/31 00:27:46;;;;;;;6.03;3.13;;;;;;;9.89;84.13;100818.50;5055260;28;20548;-53
2022/05/31 00:30:15;;;;;;;4.20;2.70;;;;;;;9.90;84.32;100814.94;5050861;28;20053;-58
2022/05/31 00:32:46;;;;;;;4.38;2.42;;;;;;;9.95;83.96;100814.69;5055167;28;20045;-55
2022/05/31 00:35:27;;;;;;;6.15;2.50;;;;;;;9.94;84.33;100816.47;5033517;28;20060;-56
2022/05/31 00:37:54;;;;;;;6.28;2.70;;;;;;;9.97;84.05;100820.72;5052301;28;20060;-55
2022/05/31 00:40:23;;;;;;;7.47;3.17;;;;;;;9.99;84.05;100811.81;5026014;28;20056;-54
2022/05/31 00:43:02;;;;;;;5.15;2.20;;;;;;;10.03;85.17;100818.59;5054994;28;20057;-56
2022/05/31 00:45:39;;;;;;;5.05;2.95;;;;;;;10.07;84.84;100817.50;5048000;28;20513;-54
2022/05/31 00:48:11;;;;;;;6.10;2.50;;;;;;;10.09;85.40;100820.94;5036854;28;20052;-56
2022/05/31 00:50:55;;;;;;;5.05;2.40;;;;;;;10.11;84.92;100819.06;5033944;28;20056;-56
2022/05/31 00:53:26;;;;;;;2.22;2.03;;;;;;;10.14;84.48;100818.91;5034210;28;20630;-54
2022/05/31 00:56:02;;;;;;;6.50;2.35;;;;;;;10.16;84.19;100824.06;5050645;28;20423;-55
2022/05/31 00:58:33;;;;;;;3.40;2.08;;;;;;;10.17;83.88;100822.28;5033747;28;20060;-52
2022/05/31 01:01:05;;;;;;;3.45;2.20;;;;;;;10.20;84.03;100824.75;5027948;28;20051;-54
2022/05/31 01:03:38;;;;;;;5.97;2.17;;;;;;;10.21;83.68;100815.91;5057113;28;20614;-56
2022/05/31 01:06:05;;;;;;;3.55;2.00;;;;;;;10.21;82.67;100819.41;5031002;28;20056;-55
2022/05/31 01:08:34;;;;;;;2.47;1.63;;;;;;;10.22;82.88;100823.75;5056011;28;20064;-56
2022/05/31 01:11:02;;;;;;;3.80;1.83;;;;;;;10.25;82.46;100823.59;5036440;28;20112;-55
2022/05/31 01:13:29;;;;;;;3.05;1.80;;;;;;;10.26;82.36;100827.06;5037823;28;20053;-54
2022/05/31 01:16:06;;;;;;;4.18;1.63;;;;;;;10.25;82.22;100823.59;5051521;28;20052;-55
2022/05/31 01:18:33;;;;;;;4.93;2.08;;;;;;;10.25;82.02;100818.34;5055535;28;20059;-57
2022/05/31 01:21:01;;;;;;;3.42;1.70;;;;;;;10.26;81.77;100817.41;5043138;28;20053;-55
2022/05/31 01:23:34;;;;;;;3.22;1.88;;;;;;;10.26;82.16;100813.91;5056693;28;20063;-56
2022/05/31 01:26:15;;;;;;;4.70;2.00;;;;;;;10.25;82.41;100812.22;5033108;28;20059;-54
2022/05/31 01:28:56;;;;;;;2.75;1.70;;;;;;;10.26;82.12;100816.53;5031700;28;20056;-57
2022/05/31 01:31:34;;;;;;;4.85;1.88;;;;;;;10.24;82.08;100808.75;5034044;28;20087;-57
2022/05/31 01:34:12;;;;;;;4.88;1.55;;;;;;;10.23;82.37;100814.06;5055228;28;20057;-55
2022/05/31 01:36:46;;;;;;;4.13;1.80;;;;;;;10.21;82.64;100814.13;5052576;28;20053;-53
2022/05/31 01:39:24;;;;;;;2.13;1.40;;;;;;;10.19;82.88;100813.38;5051727;28;20056;-56
2022/05/31 01:42:09;;;;;;;2.80;1.42;;;;;;;10.19;82.31;100812.53;5029397;28;20066;-55
2022/05/31 01:44:40;;;;;;;5.93;1.67;;;;;;;10.17;81.20;100820.50;5039475;28;20049;-55
2022/05/31 01:47:07;;;;;;;3.70;1.48;;;;;;;10.18;80.72;100813.44;5033478;28;20053;-56
2022/05/31 01:49:40;;;;;;;3.20;1.45;;;;;;;10.20;80.45;100814.22;5038057;28;20056;-56
2022/05/31 01:52:08;;;;;;;4.32;1.77;;;;;;;10.19;80.92;100812.53;5052097;28;20531;-55
2022/05/31 01:54:35;;;;;;;2.58;1.50;;;;;;;10.18;80.93;100809.06;5049561;28;20520;-55
2022/05/31 01:57:04;;;;;;;5.15;1.48;;;;;;;10.15;80.17;100807.44;5057515;28;20064;-54
2022/05/31 01:59:34;;;;;;;3.00;1.52;;;;;;;10.15;80.07;100806.59;5052734;28;20068;-55
2022/05/31 02:02:02;;;;;;;4.68;1.50;;;;;;;10.13;79.99;100806.69;5058697;28;20045;-55
2022/05/31 02:04:29;;;;;;;2.47;0.90;;;;;;;10.08;80.55;100803.41;5055276;28;20044;-57
2022/05/31 02:07:10;;;;;;;3.08;1.20;;;;;;;10.04;80.81;100803.66;5052584;28;20866;-56
2022/05/31 02:09:41;;;;;;;5.60;1.60;;;;;;;10.03;80.13;100805.47;5045835;28;20067;-57
2022/05/31 02:12:10;;;;;;;2.83;1.45;;;;;;;10.02;79.96;100808.19;5046828;28;20063;-56
2022/05/31 02:14:37;;;;;;;5.70;2.63;;;;;;;9.98;80.59;100807.50;5062583;28;20048;-53
2022/05/31 02:17:04;;;;;;;3.40;1.40;;;;;;;9.93;80.87;100806.88;5052848;28;20068;-55
2022/05/31 02:19:31;;;;;;;4.05;1.70;;;;;;;9.89;81.15;100805.34;5060093;28;20065;-55
2022/05/31 02:22:01;;;;;;;2.25;1.40;;;;;;;9.83;81.21;100797.78;5053774;28;20484;-54
2022/05/31 02:24:28;;;;;;;2.70;1.30;;;;;;;9.78;81.54;100792.78;5050148;28;20067;-57
2022/05/31 02:26:56;;;;;;;1.88;0.98;;;;;;;9.77;81.00;100793.72;5055621;28;20040;-53
2022/05/31 02:29:29;;;;;;;3.35;1.40;;;;;;;9.72;81.06;100793.09;5058890;28;20052;-57
2022/05/31 02:31:58;;;;;;;3.40;1.27;;;;;;;9.63;81.59;100797.03;5050600;28;20045;-56
2022/05/31 02:34:29;;;;;;;3.40;1.17;;;;;;;9.59;82.05;100797.28;5062441;28;20045;-54
2022/05/31 02:36:56;;;;;;;2.17;1.17;;;;;;;9.55;81.73;100806.28;5065540;28;20139;-55
2022/05/31 02:39:23;;;;;;;3.08;1.20;;;;;;;9.52;82.04;100809.91;5051670;28;20049;-53
2022/05/31 02:41:50;;;;;;;2.25;1.40;;;;;;;9.50;82.61;100806.53;5052519;28;20052;-57
2022/05/31 02:44:19;;;;;;;4.50;1.20;;;;;;;9.50;82.87;100811.78;5061467;28;20091;-54
2022/05/31 02:46:46;;;;;;;3.17;1.15;;;;;;;9.51;82.78;100815.25;5058812;28;20063;-54
2022/05/31 02:49:13;;;;;;;7.38;1.70;;;;;;;9.54;83.74;100820.34;5053633;28;20056;-54
2022/05/31 02:51:42;;;;;;;3.50;1.73;;;;;;;9.58;82.82;100820.09;5052603;28;21682;-55
2022/05/31 02:54:11;;;;;;;2.38;1.42;;;;;;;9.60;83.41;100820.88;5048615;28;20089;-56
2022/05/31 02:56:38;;;;;;;1.90;1.30;;;;;;;9.63;82.95;100811.97;5058975;28;20060;-55
2022/05/31 02:59:05;;;;;;;1.92;1.20;;;;;;;9.66;82.78;100813.59;5052896;28;20060;-56
2022/05/31 03:01:36;;;;;;;3.88;1.50;;;;;;;9.70;83.07;100821.25;5049983;28;20059;-55
2022/05/31 03:04:03;;;;;;;3.65;1.75;;;;;;;9.73;82.51;100810.59;5054281;28;20419;-57
2022/05/31 03:06:31;;;;;;;4.63;1.50;;;;;;;9.76;82.73;100810.41;5054575;28;20519;-56
2022/05/31 03:08:58;;;;;;;3.47;1.50;;;;;;;9.78;82.24;100808.56;5046257;28;20149;-56
2022/05/31 03:11:30;;;;;;;3.95;1.42;;;;;;;9.83;82.53;100817.03;5049571;28;20045;-56
2022/05/31 03:14:03;;;;;;;2.97;1.02;;;;;;;9.87;82.03;100817.75;5037572;28;20057;-55
2022/05/31 03:16:31;;;;;;;3.85;1.50;;;;;;;9.90;82.04;100818.41;5063530;28;20059;-57
2022/05/31 03:19:02;;;;;;;3.08;1.25;;;;;;;9.95;82.19;100812.94;5049977;28;20489;-52
2022/05/31 03:21:36;;;;;;;3.63;1.65;;;;;;;10.00;81.75;100817.94;5033608;28;20140;-55
2022/05/31 03:24:10;;;;;;;6.93;2.47;;;;;;;10.03;81.65;100820.38;5056137;28;20067;-57
2022/05/31 03:26:40;;;;;;;3.70;1.73;;;;;;;10.07;81.33;100821.94;5066777;28;20109;-55
2022/05/31 03:29:07;;;;;;;10.00;3.33;;;;;;;10.11;81.51;100820.84;5056631;28;20056;-55
2022/05/31 03:31:35;;;;;;;9.80;3.53;;;;;;;10.14;80.91;100813.63;5038073;28;20048;-56
2022/05/31 03:34:02;;;;;;;9.68;3.10;;;;;;;10.19;81.06;100809.91;5052890;28;20504;-56
2022/05/31 03:36:29;;;;;;;6.70;3.78;;;;;;;10.24;81.18;100811.38;5050161;28;20074;-55
2022/05/31 03:38:57;;;;;;;5.28;1.80;;;;;;;10.28;81.11;100809.44;5055149;28;20052;-53
2022/05/31 03:41:24;;;;;;;5.47;2.00;;;;;;;10.29;81.21;100819.88;5053608;28;20451;-56
2022/05/31 03:43:51;;;;;;;5.07;1.98;;;;;;;10.31;81.36;100815.38;5053644;28;20040;-55
2022/05/31 03:46:18;;;;;;;4.78;2.08;;;;;;;10.36;81.22;100815.13;5049400;28;20128;-56
2022/05/31 03:48:45;;;;;;;4.70;1.77;;;;;;;10.37;81.28;100819.47;5050558;28;20079;-54
2022/05/31 03:51:12;;;;;;;5.35;2.25;;;;;;;10.39;81.82;100825.47;5052549;28;20075;-55
2022/05/31 03:53:40;;;;;;;10.00;3.53;;;;;;;10.40;81.88;100819.28;5053981;28;20485;-53
2022/05/31 03:56:09;;;;;;;5.25;2.63;;;;;;;10.42;81.92;100824.47;5057702;28;20047;-56
2022/05/31 03:58:37;;;;;;;5.95;2.25;;;;;;;10.46;81.49;100826.00;5052092;28;20053;-57
2022/05/31 04:01:04;;;;;;;8.13;2.22;;;;;;;10.50;81.54;100823.13;5052951;28;20113;-57
2022/05/31 04:03:32;;;;;;;5.75;2.38;;;;;;;10.53;81.13;100822.91;5049188;28;20044;-54
2022/05/31 04:06:04;;;;;;;6.28;2.25;;;;;;;10.56;81.13;100830.66;5063178;28;20040;-56
2022/05/31 04:08:31;;;;;;;5.47;2.22;;;;;;;10.59;80.88;100830.50;5066218;28;20060;-52
2022/05/31 04:10:59;;;;;;;2.72;2.00;;;;;;;10.63;80.65;100831.19;5067723;28;20158;-54
2022/05/31 04:13:28;;;;;;;5.93;2.63;;;;;;;10.67;80.23;100835.31;5056086;28;20064;-54
2022/05/31 04:16:04;;;;;;;6.90;2.35;;;;;;;10.68;81.10;100844.09;5060083;28;20078;-57
2022/05/31 04:18:31;;;;;;;3.80;1.92;;;;;;;10.69;81.53;100841.38;5034675;28;20059;-53
2022/05/31 04:21:00;;;;;;;5.97;2.38;;;;;;;10.76;81.02;100844.47;5056523;28;20094;-53
2022/05/31 04:26:14;;;;;;;;;;;;;;;10.84;80.77;100843.13;5055329;28;20060;-57
2022/05/31 04:28:41;;;;;;;5.38;2.08;;;;;;;10.88;80.95;100843.81;5052251;28;20396;-54
2022/05/31 04:31:11;;;;;;;3.97;2.17;;;;;;;10.93;80.80;100843.53;5053140;28;20048;-53
2022/05/31 04:33:38;;;;;;;4.45;2.35;;;;;;;10.96;80.68;100846.00;5052428;28;20068;-56
2022/05/31 04:36:11;;;;;;;3.78;2.40;;;;;;;11.00;80.85;100847.53;5051822;28;20123;-54
2022/05/31 04:38:39;;;;;;;4.50;2.40;;;;;;;11.08;80.67;100840.91;5059300;28;20566;-54
2022/05/31 04:41:07;;;;;;;3.95;2.50;;;;;;;11.16;80.86;100838.63;5057474;28;20655;-56
2022/05/31 04:43:34;;;;;;;4.38;2.80;;;;;;;11.25;81.04;100841.69;5051487;28;20049;-56
2022/05/31 04:46:16;;;;;;;4.82;2.60;;;;;;;11.28;80.57;100845.00;5056886;28;20056;-50
2022/05/31 04:48:44;;;;;;;3.00;2.40;;;;;;;11.37;80.52;100854.16;5066423;28;20071;-52
2022/05/31 04:51:12;;;;;;;6.45;3.00;;;;;;;11.43;80.49;100845.03;5064330;28;20513;-54
2022/05/31 04:53:39;;;;;;;7.00;3.00;;;;;;;11.47;80.26;100842.13;5068187;28;20174;-55
2022/05/31 04:56:09;;;;;;;6.00;3.00;;;;;;;11.51;80.32;100843.66;5067539;28;20079;-53
2022/05/31 04:58:36;;;;;;;6.18;3.28;;;;;;;11.52;80.06;100845.34;5066845;28;20048;-50
2022/05/31 05:01:07;;;;;;;3.97;3.00;;;;;;;11.57;79.72;100845.06;5061459;28;20061;-54
2022/05/31 05:03:35;;;;;;;6.20;3.13;;;;;;;11.58;79.57;100849.41;5067603;28;20064;-56
2022/05/31 05:06:07;;;;;;;8.68;2.92;;;;;;;11.61;79.16;100849.22;5062531;28;20063;-53
2022/05/31 05:08:35;;;;;;;5.07;3.00;;;;;;;11.65;79.26;100845.44;5050397;28;20056;-53
2022/05/31 05:11:03;;;;;;;6.45;3.30;;;;;;;11.67;78.75;100851.50;5061259;28;20424;-57
2022/05/31 05:13:31;;;;;;;6.55;3.38;;;;;;;11.66;78.61;100853.28;5064180;28;20052;-51
2022/05/31 05:15:59;;;;;;;7.28;3.95;;;;;;;11.72;78.68;100849.44;5066428;28;20071;-55
2022/05/31 05:18:29;;;;;;;6.53;3.03;;;;;;;11.77;78.46;100847.38;5072219;22;20052;-80
2022/05/31 05:20:59;;;;;;;8.98;2.78;;;;;;;11.81;77.69;100842.75;5074472;28;20150;-77
2022/05/31 05:23:27;;;;;;;9.55;3.28;;;;;;;11.85;77.50;100847.78;5074641;28;20177;-79
2022/05/31 05:25:56;;;;;;;5.32;2.80;;;;;;;11.86;77.49;100835.44;5062373;28;20040;-80
2022/05/31 05:31:21;;;;;;;6.78;3.40;;;;;;;11.90;77.10;100837.81;5060144;28;20075;-79
2022/05/31 05:33:49;;;;;;;6.55;3.05;;;;;;;11.90;76.67;100843.06;5055504;28;20577;-81
2022/05/31 05:36:17;;;;;;;9.95;2.78;;;;;;;12.03;76.76;100834.41;5067417;28;20040;-81
2022/05/31 05:38:45;;;;;;;5.82;2.80;;;;;;;12.12;75.80;100842.63;5048946;28;20806;-80
2022/05/31 05:41:13;;;;;;;6.57;2.75;;;;;;;12.15;75.25;100846.84;5067127;28;20051;-80
2022/05/31 05:43:40;;;;;;;5.18;2.60;;;;;;;12.16;74.33;100840.63;5059342;28;20044;-81
2022/05/31 05:46:15;;;;;;;8.70;3.05;;;;;;;12.23;74.29;100854.28;5055063;28;20056;-79
2022/05/31 05:48:43;;;;;;;5.13;2.25;;;;;;;12.26;73.24;100849.66;5059581;28;20043;-81
2022/05/31 05:51:12;;;;;;;3.72;2.00;;;;;;;12.34;72.68;100857.13;5035195;28;20043;-78
2022/05/31 05:53:39;;;;;;;5.78;2.72;;;;;;;12.36;72.40;100844.66;5058739;28;20044;-80
2022/05/31 05:56:06;;;;;;;8.80;2.65;;;;;;;12.46;71.67;100848.41;5036608;28;20248;-79
2022/05/31 05:58:34;;;;;;;4.10;2.28;;;;;;;12.54;70.94;100848.78;5061476;28;20058;-80
2022/05/31 06:01:01;;;;;;;8.50;2.55;;;;;;;12.60;70.15;100856.28;5041763;28;20040;-80
2022/05/31 06:03:35;;;;;;;6.47;2.70;;;;;;;12.57;70.43;100856.50;5042156;28;20032;-81
2022/05/31 06:06:02;;;;;;;6.13;1.90;;;;;;;12.64;69.81;100856.97;5062805;28;20040;-80
2022/05/31 06:08:52;;;;;;;5.40;2.40;;;;;;;12.62;69.06;100848.28;5053002;28;20104;-82
2022/05/31 06:11:22;;;;;;;9.02;2.30;;;;;;;12.66;68.60;100855.09;5057450;28;20048;-80
2022/05/31 06:13:56;;;;;;;5.22;1.67;;;;;;;12.71;68.24;100847.72;5053203;28;20387;-79
2022/05/31 06:16:26;;;;;;;7.13;1.73;;;;;;;12.81;67.59;100850.59;5057559;28;20048;-80
2022/05/31 06:18:59;;;;;;;5.63;1.73;;;;;;;12.90;66.57;100853.50;5056659;28;20147;-80
2022/05/31 06:21:26;;;;;;;3.30;1.85;;;;;;;12.98;65.90;100860.94;5051835;28;20049;-79
2022/05/31 06:23:54;;;;;;;4.22;1.88;;;;;;;12.94;66.11;100862.06;5039012;28;20052;-79
2022/05/31 06:26:21;;;;;;;5.22;1.90;;;;;;;13.02;65.24;100857.13;5064733;28;20059;-81
2022/05/31 06:28:49;;;;;;;6.43;2.25;;;;;;;12.99;65.39;100856.47;5065670;28;20048;-79
2022/05/31 06:31:16;;;;;;;5.03;2.05;;;;;;;13.12;64.88;100854.72;5042160;28;20048;-80
2022/05/31 06:33:44;;;;;;;5.70;2.20;;;;;;;13.24;64.16;100855.72;5062933;28;20044;-79
2022/05/31 06:36:13;;;;;;;5.00;2.20;;;;;;;13.37;64.45;100860.13;5055916;28;20055;-80
2022/05/31 06:38:41;;;;;;;3.45;1.60;;;;;;;13.39;63.52;100857.38;5092063;28;20056;-80
2022/05/31 06:41:09;;;;;;;8.63;1.98;;;;;;;13.49;62.96;100855.78;5061278;28;20047;-79
2022/05/31 06:43:36;;;;;;;3.45;1.70;;;;;;;13.55;62.83;100860.66;5052106;28;20058;-79
2022/05/31 06:46:07;;;;;;;5.40;1.65;;;;;;;13.61;61.80;100854.13;5069016;28;20526;-79
2022/05/31 06:48:35;;;;;;;6.05;2.08;;;;;;;13.74;61.69;100862.09;5070005;28;20204;-80
2022/05/31 06:51:07;;;;;;;7.35;1.92;;;;;;;13.77;59.69;100862.69;5059017;28;20059;-80
2022/05/31 06:59:08;;;;;;;4.97;2.08;;;;;;;14.08;58.28;100860.59;5076739;28;20151;-80
2022/05/31 07:01:37;;;;;;;4.78;1.42;;;;;;;14.22;57.70;100862.25;5076118;28;20060;-80
2022/05/31 07:04:05;;;;;;;15.02;1.65;;;;;;;14.35;57.32;100861.28;5077617;28;20044;-80
2022/05/31 07:06:33;;;;;;;4.18;1.30;;;;;;;14.40;55.66;100860.97;5064496;28;20044;-80
2022/05/31 07:09:00;;;;;;;2.55;1.13;;;;;;;14.48;54.66;100858.66;5086331;28;20094;-81
2022/05/31 07:11:27;;;;;;;7.15;1.60;;;;;;;14.61;53.81;100861.28;5054253;28;20057;-81
2022/05/31 07:13:55;;;;;;;3.30;1.10;;;;;;;14.75;54.17;100853.16;5086932;28;20059;-80
2022/05/31 07:16:22;;;;;;;4.82;1.35;;;;;;;14.93;53.75;100857.13;5067819;28;20166;-80
2022/05/31 07:18:50;;;;;;;3.22;1.50;;;;;;;14.92;52.93;100852.78;5059658;28;20020;-80
2022/05/31 07:21:24;;;;;;;3.50;1.13;;;;;;;15.04;52.41;100845.75;5065891;28;20094;-80
2022/05/31 07:23:53;;;;;;;4.75;1.40;;;;;;;15.13;51.40;100850.38;5076507;28;20054;-81
2022/05/31 07:26:20;;;;;;;4.43;1.20;;;;;;;14.90;52.05;100849.41;5065105;28;20052;-80
2022/05/31 07:29:01;;;;;;;5.28;1.30;;;;;;;14.95;52.09;100854.38;5075650;28;20069;-80
2022/05/31 07:31:29;;;;;;;2.45;1.30;;;;;;;14.98;51.26;100846.19;5081218;28;20589;-81
2022/05/31 07:33:58;;;;;;;2.50;1.20;;;;;;;15.09;50.57;100851.56;5061040;28;20122;-81
2022/05/31 07:36:25;;;;;;;5.63;1.60;;;;;;;15.15;50.58;100855.53;5106407;28;20052;-80
2022/05/31 07:38:53;;;;;;;3.55;1.50;;;;;;;15.35;50.74;100846.06;5066583;28;20132;-81
2022/05/31 07:41:20;;;;;;;5.32;1.15;;;;;;;15.66;49.53;100848.13;5074559;28;20040;-80
2022/05/31 07:43:48;;;;;;;5.72;1.63;;;;;;;15.73;49.45;100845.03;5065210;28;20040;-81
2022/05/31 07:46:19;;;;;;;3.50;1.27;;;;;;;15.78;48.74;100846.34;5085091;28;20046;-81
2022/05/31 07:48:46;;;;;;;4.72;1.38;;;;;;;15.87;48.84;100845.63;5070610;28;20100;-81
2022/05/31 07:51:13;;;;;;;3.40;1.30;;;;;;;15.93;48.64;100847.81;5078914;28;20037;-81
2022/05/31 07:53:40;;;;;;;4.25;1.52;;;;;;;15.66;48.01;100841.97;5081616;28;20054;-80
2022/05/31 07:56:08;;;;;;;3.75;1.70;;;;;;;15.65;48.72;100837.63;5064898;28;20058;-80
2022/05/31 07:58:37;;;;;;;2.90;1.10;;;;;;;15.38;49.14;100828.13;5058971;28;20062;-81
2022/05/31 08:01:07;;;;;;;3.15;1.42;;;;;;;15.38;49.66;100835.25;5073272;28;20140;-81
2022/05/31 08:03:35;;;;;;;4.07;1.30;;;;;;;15.34;48.64;100839.09;5063893;28;20123;-81
2022/05/31 08:06:04;;;;;;;2.95;1.35;;;;;;;15.35;48.67;100833.66;5047663;28;20058;-81
2022/05/31 08:08:31;;;;;;;5.75;1.35;;;;;;;15.40;48.50;100843.91;5062258;28;20500;-80
2022/05/31 08:11:08;;;;;;;7.38;1.27;;;;;;;15.39;48.66;100842.25;5061129;28;20048;-81
2022/05/31 08:13:36;;;;;;;3.33;1.13;;;;;;;15.43;49.12;100841.88;5066514;28;20482;-82
2022/05/31 08:16:04;;;;;;;3.47;1.10;;;;;;;15.48;48.26;100832.75;5078667;28;20056;-81
2022/05/31 08:18:31;;;;;;;8.82;1.40;;;;;;;15.52;48.58;100834.19;5060494;28;20151;-81
2022/05/31 08:21:00;;;;;;;3.60;1.60;;;;;;;15.76;48.15;100842.09;5056223;28;20066;-81
2022/05/31 08:23:28;;;;;;;4.35;1.20;;;;;;;15.98;48.02;100828.84;5066877;28;20418;-80
2022/05/31 08:25:55;;;;;;;5.50;1.38;;;;;;;16.07;46.92;100830.78;5050852;28;20161;-80
2022/05/31 08:28:23;;;;;;;4.18;1.30;;;;;;;16.24;47.13;100824.16;5060131;28;20378;-80
2022/05/31 08:30:56;;;;;;;3.42;1.17;;;;;;;16.31;46.03;100825.38;5050909;28;20453;-80
2022/05/31 08:33:27;;;;;;;3.70;1.10;;;;;;;16.36;45.61;100811.72;5055889;28;20036;-80
2022/05/31 08:35:54;;;;;;;3.55;1.38;;;;;;;16.46;45.65;100824.13;5037978;28;20152;-80
2022/05/31 08:38:31;;;;;;;3.15;1.40;;;;;;;16.57;44.58;100827.72;5051770;28;20068;-81
2022/05/31 08:41:07;;;;;;;4.45;1.38;;;;;;;16.48;44.30;100817.84;5059417;28;20568;-80
2022/05/31 08:43:47;;;;;;;5.78;1.42;;;;;;;16.60;43.61;100823.00;5041467;28;20463;-79
2022/05/31 08:46:26;;;;;;;4.72;1.60;;;;;;;16.67;43.76;100821.56;5092524;28;20048;-79
2022/05/31 08:49:13;;;;;;;7.03;1.50;;;;;;;16.59;43.67;100813.34;5086064;28;20139;-80
2022/05/31 08:51:58;;;;;;;20.48;2.28;;;;;;;16.72;44.19;100815.91;5038864;28;20048;-79
2022/05/31 08:57:29;;;;;;;4.45;1.65;;;;;;;16.87;42.92;100811.13;5055463;28;20070;-80
2022/05/31 09:00:00;;;;;;;3.20;1.27;;;;;;;16.94;42.57;100804.34;5062999;28;20051;-81
2022/05/31 09:02:41;;;;;;;7.38;1.60;;;;;;;17.13;42.24;100801.84;5054141;28;20068;-80
2022/05/31 09:05:27;;;;;;;5.10;1.48;;;;;;;17.39;41.69;100804.13;5046061;28;20040;-78
2022/05/31 09:08:09;;;;;;;8.40;1.73;;;;;;;17.70;41.17;100805.00;5057026;28;20401;-81
2022/05/31 09:10:36;;;;;;;5.28;1.48;;;;;;;17.77;40.54;100805.34;5058872;28;20041;-81
2022/05/31 09:13:19;;;;;;;9.73;1.10;;;;;;;17.74;40.65;100794.94;5076088;28;20036;-81
2022/05/31 09:15:54;;;;;;;3.33;1.20;;;;;;;17.53;40.67;100809.13;5054144;28;20058;-81
2022/05/31 09:18:23;;;;;;;4.80;1.65;;;;;;;17.40;41.55;100805.81;5042875;28;20086;-81
2022/05/31 09:20:59;;;;;;;9.00;1.73;;;;;;;17.42;41.39;100804.69;5080620;28;20048;-80
2022/05/31 09:23:30;;;;;;;4.95;1.45;;;;;;;17.38;41.25;100803.28;5063458;28;20175;-79
2022/05/31 09:26:15;;;;;;;3.45;1.30;;;;;;;17.40;39.99;100793.34;5058454;28;20036;-80
2022/05/31 09:28:55;;;;;;;4.43;1.33;;;;;;;17.93;39.45;100785.25;5048783;28;20157;-79
2022/05/31 09:31:46;;;;;;;3.00;1.17;;;;;;;18.52;38.84;100783.59;5073218;28;20120;-79
2022/05/31 09:34:46;;;;;;;4.10;2.15;;;;;;;18.69;38.20;100785.63;5075093;28;20064;-80
2022/05/31 09:37:49;;;;;;;6.68;1.67;;;;;;;18.58;37.85;100780.38;5068646;28;20481;-79
2022/05/31 09:40:34;;;;;;;3.83;1.13;;;;;;;18.14;38.65;100789.66;5076045;28;20056;-80
2022/05/31 09:43:11;;;;;;;7.05;1.88;;;;;;;17.73;39.39;100775.44;5063349;28;20679;-79
2022/05/31 09:46:04;;;;;;;4.47;1.63;;;;;;;18.03;39.42;100779.97;5078978;28;20075;-80
2022/05/31 09:48:31;;;;;;;4.93;1.65;;;;;;;17.95;39.10;100774.44;5076611;28;20139;-80
2022/05/31 09:51:18;;;;;;;5.68;1.35;;;;;;;17.74;39.53;100769.16;5063129;28;20051;-80
2022/05/31 09:59:23;;;;;;;8.32;1.40;;;;;;;18.30;39.82;100767.84;5059483;28;20039;-79
2022/05/31 10:01:51;;;;;;;7.57;1.42;;;;;;;18.42;39.50;100764.09;5050022;28;20067;-80
2022/05/31 10:04:26;;;;;;;3.40;1.30;;;;;;;18.38;37.90;100754.69;5043232;28;20041;-81
2022/05/31 10:07:04;;;;;;;2.92;0.90;;;;;;;18.57;38.23;100760.03;5048004;28;20056;-80
2022/05/31 10:09:37;;;;;;;2.25;1.30;;;;;;;18.48;37.51;100760.84;5038855;28;20041;-80
2022/05/31 10:12:23;;;;;;;2.47;1.25;;;;;;;18.45;37.66;100753.13;5057469;28;20142;-80
2022/05/31 10:14:51;;;;;;;2.33;1.23;;;;;;;18.83;37.75;100751.53;5059178;28;20122;-80
2022/05/31 10:17:34;;;;;;;5.47;1.60;;;;;;;19.48;36.87;100753.38;5044452;28;20102;-80
2022/05/31 10:20:22;;;;;;;7.15;2.45;;;;;;;19.71;36.84;100747.72;5054093;28;20047;-80
2022/05/31 10:23:11;;;;;;;5.05;1.50;;;;;;;19.64;36.10;100747.47;5037879;28;20151;-80
2022/05/31 10:25:47;;;;;;;4.70;1.50;;;;;;;19.54;36.23;100745.78;5063975;28;20070;-81
2022/05/31 10:28:29;;;;;;;4.68;1.40;;;;;;;19.51;36.89;100743.41;5055124;28;20051;-81
2022/05/31 10:31:16;;;;;;;6.00;1.83;;;;;;;19.55;36.86;100732.28;5087784;28;20059;-81
2022/05/31 10:33:56;;;;;;;6.22;1.45;;;;;;;19.08;36.16;100734.91;5058310;28;20044;-81
2022/05/31 10:36:29;;;;;;;5.65;1.80;;;;;;;18.37;37.61;100740.50;5063299;28;20050;-79
2022/05/31 10:39:07;;;;;;;6.20;1.30;;;;;;;18.56;38.23;100731.69;5073489;28;20056;-79
2022/05/31 10:41:36;;;;;;;3.13;1.20;;;;;;;18.85;37.73;100733.53;5040872;28;20044;-79
2022/05/31 10:44:32;;;;;;;5.32;1.20;;;;;;;19.03;37.03;100731.00;5063466;28;20048;-79
2022/05/31 10:47:09;;;;;;;3.83;1.10;;;;;;;19.02;36.42;100724.81;5054927;28;20036;-80
2022/05/31 10:49:36;;;;;;;4.95;1.20;;;;;;;19.21;37.08;100727.44;5080072;28;20191;-79
2022/05/31 10:52:25;;;;;;;2.58;1.00;;;;;;;19.73;36.86;100713.69;5066376;28;20049;-79
2022/05/31 10:55:21;;;;;;;1.65;0.93;;;;;;;20.24;36.15;100717.63;5065063;28;20078;-80
2022/05/31 10:57:58;;;;;;;5.40;1.27;;;;;;;20.07;35.11;100715.75;5057039;28;20054;-80
2022/05/31 11:00:43;;;;;;;8.80;1.35;;;;;;;20.21;35.25;100715.25;5070266;28;20087;-79
2022/05/31 11:03:20;;;;;;;2.97;1.10;;;;;;;20.20;34.53;100709.06;5073755;28;20108;-80
2022/05/31 11:06:06;;;;;;;2.55;1.10;;;;;;;20.58;34.57;100701.81;5070496;28;20097;-79
2022/05/31 11:11:57;;;;;;;3.35;1.52;;;;;;;20.63;33.63;100712.88;5063630;28;20056;-79
2022/05/31 11:14:34;;;;;;;7.22;1.92;;;;;;;20.58;33.24;100700.94;5071461;28;20040;-80
2022/05/31 11:17:10;;;;;;;4.68;1.27;;;;;;;21.03;33.40;100708.88;5037093;28;20044;-80
2022/05/31 11:19:55;;;;;;;4.20;1.92;;;;;;;20.87;32.93;100701.53;5050023;28;20044;-79
2022/05/31 11:22:36;;;;;;;3.15;1.27;;;;;;;20.46;34.37;100695.81;5053324;28;20049;-80
2022/05/31 11:25:25;;;;;;;2.45;1.05;;;;;;;20.51;33.56;100698.06;5062105;28;20057;-81
2022/05/31 11:28:41;;;;;;;3.30;1.23;;;;;;;20.57;33.34;100693.91;5080392;28;20052;-80
2022/05/31 11:31:17;;;;;;;6.07;2.08;;;;;;;20.42;32.68;100686.41;5049024;28;20051;-79
2022/05/31 11:34:11;;;;;;;3.28;1.50;;;;;;;20.29;33.31;100696.63;5076566;28;20058;-80
2022/05/31 11:36:57;;;;;;;5.35;1.40;;;;;;;20.34;33.98;100685.47;5076761;28;20061;-79
2022/05/31 11:40:04;;;;;;;3.63;1.35;;;;;;;20.38;33.51;100693.03;5063400;28;20532;-80
2022/05/31 11:42:56;;;;;;;4.32;1.13;;;;;;;20.33;33.20;100689.16;5068445;28;20485;-80
2022/05/31 11:45:32;;;;;;;4.28;1.42;;;;;;;20.39;33.40;100691.22;5065965;28;20066;-81
2022/05/31 11:48:02;;;;;;;3.33;1.10;;;;;;;20.54;32.83;100678.19;5044848;28;20536;-82
2022/05/31 11:51:00;;;;;;;3.38;1.50;;;;;;;20.93;33.27;100671.47;5076678;28;20044;-81
2022/05/31 11:53:49;;;;;;;3.17;1.35;;;;;;;21.13;32.43;100671.28;5072833;28;20036;-81
2022/05/31 11:56:37;;;;;;;6.60;1.33;;;;;;;21.17;32.41;100678.00;5071743;28;20666;-81
2022/05/31 11:59:15;;;;;;;5.70;1.67;;;;;;;21.19;32.38;100676.00;5086297;28;20048;-81
2022/05/31 12:01:49;;;;;;;5.65;2.53;;;;;;;21.38;32.14;100677.63;5078986;28;20059;-81
2022/05/31 12:04:22;;;;;;;5.80;2.55;;;;;;;21.62;32.27;100671.59;5041524;28;20422;-81
2022/05/31 12:07:04;;;;;;;4.95;1.55;;;;;;;22.03;31.58;100669.88;5043767;28;20062;-81
2022/05/31 12:09:35;;;;;;;3.25;1.35;;;;;;;;;;5065449;28;20066;-80
2022/05/31 12:12:07;;;;;;;6.60;1.13;;;;;;;22.22;30.87;100663.41;5095548;28;20091;-81
2022/05/31 12:14:44;;;;;;;4.88;1.30;;;;;;;21.60;31.38;100663.69;5061441;28;20052;-80